createdAt,value
2018-08-19T00:00:24.647Z,19.60
2018-08-19T00:02:54.928Z,19.50
2018-08-19T00:05:23.115Z,19.50
2018-08-19T00:07:51.173Z,19.50
2018-08-19T00:10:35.101Z,19.50
2018-08-19T00:13:03.549Z,19.50
2018-08-19T00:15:32.347Z,19.40
2018-08-19T00:18:00.552Z,19.40
2018-08-19T00:20:28.731Z,19.40
2018-08-19T00:22:56.826Z,19.40
2018-08-19T00:25:31.971Z,19.40
2018-08-19T00:28:00.107Z,19.40
2018-08-19T00:30:29.445Z,19.30
2018-08-19T00:32:57.625Z,19.20
2018-08-19T00:35:26.313Z,19.20
2018-08-19T00:37:54.769Z,19.10
2018-08-19T00:40:23.244Z,19.10
2018-08-19T00:42:51.778Z,19.00
2018-08-19T00:45:20.225Z,18.90
2018-08-19T00:47:49.003Z,19.00
2018-08-19T00:50:17.223Z,19.00
2018-08-19T00:52:46.306Z,19.00
2018-08-19T00:55:14.435Z,19.00
2018-08-19T00:57:45.603Z,19.00
2018-08-19T01:00:13.790Z,19.00
2018-08-19T01:02:42.553Z,18.90
2018-08-19T01:05:10.703Z,18.90
2018-08-19T01:07:38.828Z,18.90
2018-08-19T01:10:06.901Z,18.90
2018-08-19T01:12:34.974Z,18.90
2018-08-19T01:15:03.310Z,18.80
2018-08-19T01:17:38.394Z,18.80
2018-08-19T01:20:07.872Z,18.70
2018-08-19T01:22:37.332Z,18.70
2018-08-19T01:25:06.252Z,18.70
2018-08-19T01:27:37.063Z,18.70
2018-08-19T01:30:19.252Z,18.70
2018-08-19T01:32:47.553Z,18.70
2018-08-19T01:35:16.577Z,18.70
2018-08-19T01:37:45.411Z,18.70
2018-08-19T01:40:17.388Z,18.70
2018-08-19T01:42:46.479Z,18.70
2018-08-19T01:45:14.892Z,18.70
2018-08-19T01:47:43.601Z,18.80
2018-08-19T01:50:14.214Z,18.70
2018-08-19T01:52:42.983Z,18.90
2018-08-19T01:55:11.115Z,18.90
2018-08-19T01:57:45.671Z,19.00
2018-08-19T02:00:14.744Z,19.00
2018-08-19T02:02:55.715Z,18.90
2018-08-19T02:05:24.365Z,18.80
2018-08-19T02:07:54.601Z,18.70
2018-08-19T02:10:23.509Z,18.70
2018-08-19T02:12:52.350Z,18.60
2018-08-19T02:15:21.175Z,18.60
2018-08-19T02:17:55.659Z,18.60
2018-08-19T02:20:28.161Z,18.50
2018-08-19T02:23:00.099Z,18.50
2018-08-19T02:25:40.141Z,18.50
2018-08-19T02:28:09.347Z,18.50
2018-08-19T02:30:46.847Z,18.40
2018-08-19T02:33:15.300Z,18.40
2018-08-19T02:35:48.263Z,18.30
2018-08-19T02:38:16.987Z,18.40
2018-08-19T02:40:45.193Z,18.50
2018-08-19T02:43:13.852Z,18.50
2018-08-19T02:45:43.817Z,18.30
2018-08-19T02:48:12.359Z,18.30
2018-08-19T02:50:41.094Z,18.40
2018-08-19T02:53:10.836Z,18.50
2018-08-19T02:55:39.541Z,18.30
2018-08-19T02:58:13.232Z,18.30
2018-08-19T03:00:41.590Z,18.20
2018-08-19T03:03:10.110Z,18.10
2018-08-19T03:05:39.230Z,18.00
2018-08-19T03:08:07.503Z,17.90
2018-08-19T03:10:35.962Z,17.90
2018-08-19T03:13:04.116Z,18.00
2018-08-19T03:15:32.492Z,18.10
2018-08-19T03:18:01.296Z,18.00
2018-08-19T03:20:30.074Z,18.00
2018-08-19T03:22:58.865Z,17.90
2018-08-19T03:25:26.982Z,17.80
2018-08-19T03:27:55.446Z,17.70
2018-08-19T03:30:24.220Z,17.80
2018-08-19T03:32:58.698Z,17.80
2018-08-19T03:35:27.285Z,17.80
2018-08-19T03:37:56.250Z,17.90
2018-08-19T03:40:26.248Z,17.70
2018-08-19T03:42:55.352Z,17.70
2018-08-19T03:45:23.449Z,17.70
2018-08-19T03:47:53.073Z,17.80
2018-08-19T03:50:27.042Z,17.90
2018-08-19T03:52:56.424Z,17.90
2018-08-19T03:55:26.839Z,17.90
2018-08-19T03:58:00.635Z,17.90
2018-08-19T04:00:31.583Z,17.90
2018-08-19T04:02:59.708Z,17.90
2018-08-19T04:06:03.028Z,17.90
2018-08-19T04:08:39.792Z,17.90
2018-08-19T04:11:08.516Z,18.00
2018-08-19T04:13:37.935Z,18.10
2018-08-19T04:16:07.572Z,18.20
2018-08-19T04:18:38.388Z,18.30
2018-08-19T04:21:08.364Z,18.20
2018-08-19T04:23:40.076Z,18.20
2018-08-19T04:26:08.955Z,18.10
2018-08-19T04:28:40.628Z,18.10
2018-08-19T04:31:24.739Z,18.30
2018-08-19T04:33:53.545Z,18.50
2018-08-19T04:36:23.580Z,18.40
2018-08-19T04:38:51.601Z,18.60
2018-08-19T04:41:20.050Z,18.70
2018-08-19T04:43:49.107Z,18.70
2018-08-19T04:46:17.510Z,18.70
2018-08-19T04:48:47.094Z,18.80
2018-08-19T04:51:15.881Z,18.90
2018-08-19T04:53:44.289Z,18.90
2018-08-19T04:56:13.058Z,19.10
2018-08-19T04:58:41.864Z,19.30
2018-08-19T05:01:10.958Z,19.40
2018-08-19T05:03:41.195Z,19.50
2018-08-19T05:06:09.623Z,19.60
2018-08-19T05:08:38.413Z,19.70
2018-08-19T05:11:06.915Z,19.50
2018-08-19T05:13:35.649Z,19.60
2018-08-19T05:16:04.075Z,19.80
2018-08-19T05:18:32.210Z,20.00
2018-08-19T05:21:05.922Z,20.20
2018-08-19T05:23:34.707Z,20.40
2018-08-19T05:26:03.115Z,20.50
2018-08-19T05:28:31.928Z,20.50
2018-08-19T05:31:00.360Z,20.70
2018-08-19T05:33:29.216Z,20.80
2018-08-19T05:35:57.750Z,20.90
2018-08-19T05:38:25.884Z,20.90
2018-08-19T05:41:00.495Z,21.00
2018-08-19T05:43:29.319Z,21.20
2018-08-19T05:45:58.588Z,21.20
2018-08-19T05:48:27.042Z,21.40
2018-08-19T05:50:55.718Z,21.40
2018-08-19T05:53:23.848Z,21.50
2018-08-19T05:55:52.738Z,21.80
2018-08-19T05:58:21.420Z,22.10
2018-08-19T06:00:54.313Z,22.50
2018-08-19T06:03:22.442Z,22.60
2018-08-19T06:05:51.222Z,22.80
2018-08-19T06:08:19.322Z,23.10
2018-08-19T06:10:48.061Z,22.90
2018-08-19T06:13:16.501Z,23.20
2018-08-19T06:15:44.957Z,23.30
2018-08-19T06:18:13.274Z,23.50
2018-08-19T06:20:41.439Z,23.70
2018-08-19T06:23:09.930Z,24.00
2018-08-19T06:25:38.447Z,24.30
2018-08-19T06:28:06.558Z,24.40
2018-08-19T06:30:34.633Z,24.60
2018-08-19T06:33:03.095Z,24.60
2018-08-19T06:35:31.552Z,24.60
2018-08-19T06:37:59.669Z,24.80
2018-08-19T06:40:28.120Z,24.80
2018-08-19T06:42:56.674Z,25.10
2018-08-19T06:45:24.843Z,25.20
2018-08-19T06:47:53.756Z,25.30
2018-08-19T06:50:28.507Z,25.50
2018-08-19T06:52:56.886Z,25.70
2018-08-19T06:55:25.026Z,25.80
2018-08-19T06:57:55.427Z,26.10
2018-08-19T07:00:27.076Z,25.80
2018-08-19T07:02:56.848Z,26.10
2018-08-19T07:05:25.376Z,26.40
2018-08-19T07:07:54.120Z,26.70
2018-08-19T07:10:29.001Z,27.10
2018-08-19T07:13:01.494Z,27.30
2018-08-19T07:15:30.003Z,27.50
2018-08-19T07:17:58.396Z,27.80
2018-08-19T07:20:26.667Z,27.90
2018-08-19T07:22:56.143Z,27.80
2018-08-19T07:25:24.347Z,28.10
2018-08-19T07:27:53.171Z,28.40
2018-08-19T07:30:21.347Z,28.60
2018-08-19T07:32:49.467Z,29.10
2018-08-19T07:35:17.782Z,28.90
2018-08-19T07:37:46.670Z,28.70
2018-08-19T07:40:15.471Z,28.80
2018-08-19T07:42:43.994Z,29.10
2018-08-19T07:45:12.453Z,28.90
2018-08-19T07:47:40.923Z,29.00
2018-08-19T07:50:10.325Z,29.20
2018-08-19T07:52:39.440Z,29.50
2018-08-19T07:55:07.964Z,29.50
2018-08-19T07:57:37.482Z,29.70
2018-08-19T08:00:05.581Z,30.30
2018-08-19T08:02:34.233Z,29.90
2018-08-19T08:05:02.742Z,29.40
2018-08-19T08:07:31.869Z,29.60
2018-08-19T08:10:00.057Z,30.10
2018-08-19T08:12:28.835Z,29.70
2018-08-19T08:14:57.359Z,29.40
2018-08-19T08:17:26.985Z,29.50
2018-08-19T08:20:00.934Z,29.50
2018-08-19T08:22:29.764Z,29.70
2018-08-19T08:24:58.487Z,29.80
2018-08-19T08:27:26.954Z,29.70
2018-08-19T08:29:55.238Z,29.70
2018-08-19T08:32:23.300Z,30.00
2018-08-19T08:34:51.358Z,30.50
2018-08-19T08:37:19.474Z,30.70
2018-08-19T08:39:49.961Z,30.90
2018-08-19T08:42:18.687Z,31.10
2018-08-19T08:44:47.352Z,31.30
2018-08-19T08:47:17.070Z,31.50
2018-08-19T08:49:47.119Z,31.90
2018-08-19T08:52:21.364Z,32.40
2018-08-19T08:54:54.256Z,32.20
2018-08-19T08:57:23.478Z,31.50
2018-08-19T08:59:52.437Z,31.80
2018-08-19T09:02:20.707Z,31.80
2018-08-19T09:04:49.816Z,31.90
2018-08-19T09:07:18.121Z,31.90
2018-08-19T09:09:47.116Z,32.00
2018-08-19T09:12:16.338Z,32.50
2018-08-19T09:14:44.866Z,32.30
2018-08-19T09:19:51.916Z,32.50
2018-08-19T09:22:20.345Z,32.40
2018-08-19T09:24:48.843Z,32.70
2018-08-19T09:27:17.001Z,33.00
2018-08-19T09:29:45.535Z,33.30
2018-08-19T09:32:13.847Z,33.60
2018-08-19T09:34:42.493Z,33.20
2018-08-19T09:37:10.925Z,33.30
2018-08-19T09:39:39.237Z,33.00
2018-08-19T09:42:12.104Z,33.30
2018-08-19T09:44:41.100Z,33.60
2018-08-19T09:47:09.622Z,33.80
2018-08-19T09:49:38.286Z,32.90
2018-08-19T09:52:06.901Z,32.60
2018-08-19T09:54:38.317Z,32.60
2018-08-19T09:57:07.693Z,32.60
2018-08-19T09:59:36.446Z,33.20
2018-08-19T10:02:06.843Z,33.00
2018-08-19T10:04:36.590Z,33.00
2018-08-19T10:07:10.129Z,33.10
2018-08-19T10:09:38.308Z,32.70
2018-08-19T10:12:08.541Z,32.80
2018-08-19T10:14:42.871Z,33.00
2018-08-19T10:17:11.819Z,33.10
2018-08-19T10:19:43.240Z,32.60
2018-08-19T10:22:12.471Z,32.60
2018-08-19T10:24:44.297Z,33.10
2018-08-19T10:27:18.627Z,33.80
2018-08-19T10:29:46.785Z,34.70
2018-08-19T10:32:14.868Z,34.00
2018-08-19T10:34:43.638Z,33.70
2018-08-19T10:37:12.116Z,34.00
2018-08-19T10:39:40.920Z,33.90
2018-08-19T10:42:22.056Z,33.60
2018-08-19T10:44:51.617Z,34.10
2018-08-19T10:47:20.618Z,33.80
2018-08-19T10:49:57.433Z,33.90
2018-08-19T10:52:26.754Z,34.80
2018-08-19T10:54:56.206Z,35.20
2018-08-19T10:57:24.701Z,35.20
2018-08-19T10:59:55.227Z,35.10
2018-08-19T11:02:23.656Z,35.10
2018-08-19T11:04:54.061Z,34.90
2018-08-19T11:07:22.891Z,35.60
2018-08-19T11:10:09.709Z,36.60
2018-08-19T11:12:38.167Z,37.10
2018-08-19T11:15:16.586Z,37.20
2018-08-19T11:17:45.455Z,36.60
2018-08-19T11:20:13.893Z,36.30
2018-08-19T11:22:42.650Z,36.70
2018-08-19T11:25:10.778Z,37.00
2018-08-19T11:27:39.672Z,37.10
2018-08-19T11:30:08.560Z,37.60
2018-08-19T11:32:37.150Z,37.30
2018-08-19T11:35:06.144Z,36.70
2018-08-19T11:37:34.946Z,37.20
2018-08-19T11:40:03.419Z,37.50
2018-08-19T11:42:31.900Z,37.60
2018-08-19T11:45:00.425Z,37.50
2018-08-19T11:47:28.937Z,37.50
2018-08-19T11:49:57.914Z,38.40
2018-08-19T11:52:26.372Z,38.70
2018-08-19T11:54:55.294Z,38.50
2018-08-19T11:57:24.294Z,38.10
2018-08-19T11:59:54.454Z,37.60
2018-08-19T12:02:24.390Z,37.70
2018-08-19T12:04:52.689Z,38.20
2018-08-19T12:07:21.665Z,39.30
2018-08-19T12:09:56.707Z,40.00
2018-08-19T12:12:43.046Z,40.30
2018-08-19T12:15:11.514Z,41.20
2018-08-19T12:17:39.634Z,41.50
2018-08-19T12:20:07.793Z,40.20
2018-08-19T12:22:36.558Z,39.20
2018-08-19T12:25:05.809Z,39.40
2018-08-19T12:27:34.352Z,39.60
2018-08-19T12:30:11.394Z,39.80
2018-08-19T12:32:39.578Z,39.60
2018-08-19T12:35:07.747Z,39.80
2018-08-19T12:37:36.655Z,39.90
2018-08-19T12:40:06.088Z,39.80
2018-08-19T12:42:38.979Z,40.20
2018-08-19T12:45:07.950Z,39.60
2018-08-19T12:47:36.706Z,39.00
2018-08-19T12:50:09.647Z,39.10
2018-08-19T12:52:38.622Z,39.80
2018-08-19T12:55:10.923Z,39.30
2018-08-19T12:57:40.258Z,39.80
2018-08-19T13:00:16.217Z,40.70
2018-08-19T13:02:46.039Z,40.50
2018-08-19T13:05:15.592Z,41.00
2018-08-19T13:07:43.960Z,41.50
2018-08-19T13:10:12.104Z,41.50
2018-08-19T13:12:58.516Z,41.10
2018-08-19T13:15:29.676Z,40.90
2018-08-19T13:17:58.233Z,40.50
2018-08-19T13:20:26.892Z,41.40
2018-08-19T13:23:02.759Z,41.70
2018-08-19T13:25:31.351Z,41.10
2018-08-19T13:27:59.633Z,40.60
2018-08-19T13:30:27.796Z,40.40
2018-08-19T13:32:55.937Z,40.90
2018-08-19T13:35:24.039Z,41.20
2018-08-19T13:37:52.327Z,40.80
2018-08-19T13:40:20.793Z,40.80
2018-08-19T13:42:48.952Z,40.80
2018-08-19T13:45:18.645Z,41.10
2018-08-19T13:47:48.290Z,41.00
2018-08-19T13:50:16.572Z,40.70
2018-08-19T13:52:45.467Z,40.50
2018-08-19T13:55:15.287Z,39.60
2018-08-19T13:57:43.464Z,38.90
2018-08-19T14:00:15.003Z,39.40
2018-08-19T14:02:43.294Z,39.70
2018-08-19T14:05:11.955Z,40.30
2018-08-19T14:07:40.632Z,40.30
2018-08-19T14:10:10.347Z,40.30
2018-08-19T14:12:38.952Z,39.70
2018-08-19T14:15:07.145Z,39.40
2018-08-19T14:17:36.078Z,39.60
2018-08-19T14:20:05.583Z,39.30
2018-08-19T14:22:34.374Z,39.00
2018-08-19T14:25:03.021Z,39.20
2018-08-19T14:27:31.779Z,39.60
2018-08-19T14:30:00.261Z,39.80
2018-08-19T14:32:32.930Z,39.20
2018-08-19T14:35:02.570Z,39.00
2018-08-19T14:37:31.422Z,37.50
2018-08-19T14:40:00.191Z,36.60
2018-08-19T14:42:29.080Z,36.80
2018-08-19T14:44:58.312Z,36.80
2018-08-19T14:47:26.809Z,36.10
2018-08-19T14:49:55.987Z,35.30
2018-08-19T14:52:24.471Z,34.50
2018-08-19T14:54:52.917Z,34.20
2018-08-19T14:57:21.721Z,34.00
2018-08-19T14:59:50.182Z,33.90
2018-08-19T15:02:18.770Z,34.20
2018-08-19T15:04:47.738Z,33.80
2018-08-19T15:07:15.939Z,33.40
2018-08-19T15:09:47.954Z,33.20
2018-08-19T15:12:19.552Z,33.00
2018-08-19T15:14:47.698Z,32.50
2018-08-19T15:17:16.589Z,32.10
2018-08-19T15:19:47.031Z,32.10
2018-08-19T15:22:15.593Z,32.40
2018-08-19T15:24:44.161Z,32.40
2018-08-19T15:27:12.432Z,32.20
2018-08-19T15:29:42.131Z,32.20
2018-08-19T15:32:11.037Z,32.00
2018-08-19T15:34:39.545Z,32.00
2018-08-19T15:37:07.694Z,32.00
2018-08-19T15:39:36.510Z,31.90
2018-08-19T15:42:04.683Z,32.00
2018-08-19T15:44:32.813Z,32.20
2018-08-19T15:47:00.973Z,32.00
2018-08-19T15:49:29.679Z,32.10
2018-08-19T15:51:57.873Z,31.70
2018-08-19T15:54:26.147Z,31.50
2018-08-19T15:56:57.703Z,31.30
2018-08-19T15:59:26.176Z,31.30
2018-08-19T16:01:55.321Z,31.30
2018-08-19T16:04:25.189Z,31.20
2018-08-19T16:06:54.825Z,31.20
2018-08-19T16:09:24.387Z,31.40
2018-08-19T16:11:53.037Z,31.40
2018-08-19T16:14:31.185Z,31.30
2018-08-19T16:17:00.747Z,31.10
2018-08-19T16:19:29.144Z,31.00
2018-08-19T16:21:58.264Z,30.90
2018-08-19T16:24:26.849Z,31.00
2018-08-19T16:26:55.332Z,31.00
2018-08-19T16:29:23.928Z,31.00
2018-08-19T16:31:52.809Z,31.10
2018-08-19T16:34:21.313Z,30.90
2018-08-19T16:36:49.728Z,30.90
2018-08-19T16:39:18.586Z,30.90
2018-08-19T16:41:46.797Z,30.90
2018-08-19T16:44:14.973Z,30.80
2018-08-19T16:46:43.184Z,30.80
2018-08-19T16:49:11.278Z,30.70
2018-08-19T16:51:39.403Z,30.80
2018-08-19T16:54:08.138Z,30.80
2018-08-19T16:56:36.958Z,30.90
2018-08-19T16:59:05.152Z,30.80
2018-08-19T17:01:33.261Z,30.70
2018-08-19T17:04:01.431Z,30.60
2018-08-19T17:06:29.887Z,30.60
2018-08-19T17:08:58.374Z,30.50
2018-08-19T17:11:27.262Z,30.40
2018-08-19T17:13:56.103Z,30.30
2018-08-19T17:16:24.535Z,30.20
2018-08-19T17:18:52.685Z,30.10
2018-08-19T17:21:21.187Z,30.00
2018-08-19T17:23:50.263Z,29.90
2018-08-19T17:26:24.630Z,29.90
2018-08-19T17:28:53.511Z,29.80
2018-08-19T17:31:22.319Z,29.70
2018-08-19T17:33:50.788Z,29.60
2018-08-19T17:36:29.110Z,29.60
2018-08-19T17:38:58.540Z,29.50
2018-08-19T17:41:27.531Z,29.40
2018-08-19T17:43:56.358Z,29.20
2018-08-19T17:46:24.759Z,29.20
2018-08-19T17:48:53.549Z,29.20
2018-08-19T17:51:31.351Z,29.10
2018-08-19T17:53:59.548Z,29.00
2018-08-19T17:56:27.669Z,29.00
2018-08-19T17:58:56.126Z,28.90
2018-08-19T18:01:24.383Z,28.70
2018-08-19T18:03:52.815Z,28.70
2018-08-19T18:06:21.248Z,28.70
2018-08-19T18:08:50.910Z,28.70
2018-08-19T18:11:19.382Z,28.50
2018-08-19T18:13:48.047Z,28.40
2018-08-19T18:16:16.653Z,28.30
2018-08-19T18:18:45.425Z,28.20
2018-08-19T18:21:14.522Z,28.10
2018-08-19T18:23:44.564Z,28.10
2018-08-19T18:26:13.166Z,28.00
2018-08-19T18:28:43.346Z,27.90
2018-08-19T18:31:12.030Z,27.90
2018-08-19T18:33:46.406Z,27.80
2018-08-19T18:36:14.906Z,27.80
2018-08-19T18:38:43.690Z,27.70
2018-08-19T18:41:18.497Z,27.60
2018-08-19T18:43:49.724Z,27.50
2018-08-19T18:46:17.894Z,27.30
2018-08-19T18:48:47.926Z,27.20
2018-08-19T18:51:16.524Z,27.10
2018-08-19T18:53:45.548Z,27.00
2018-08-19T18:56:13.777Z,26.90
2018-08-19T18:58:42.925Z,26.80
2018-08-19T19:01:11.043Z,26.70
2018-08-19T19:03:39.238Z,26.50
2018-08-19T19:06:08.005Z,26.40
2018-08-19T19:08:36.528Z,26.40
2018-08-19T19:11:05.459Z,26.30
2018-08-19T19:13:34.622Z,26.20
2018-08-19T19:16:03.170Z,26.10
2018-08-19T19:18:32.092Z,26.00
2018-08-19T19:21:02.827Z,25.90
2018-08-19T19:23:41.211Z,25.90
2018-08-19T19:26:10.190Z,25.80
2018-08-19T19:28:38.965Z,25.70
2018-08-19T19:31:12.109Z,25.70
2018-08-19T19:33:40.635Z,25.70
2018-08-19T19:36:14.280Z,25.60
2018-08-19T19:38:59.233Z,25.40
2018-08-19T19:41:31.194Z,25.20
2018-08-19T19:44:04.553Z,25.00
2018-08-19T19:46:33.328Z,25.00
2018-08-19T19:49:02.122Z,25.00
2018-08-19T19:51:30.987Z,25.00
2018-08-19T19:53:59.443Z,24.90
2018-08-19T19:56:28.061Z,24.90
2018-08-19T19:58:56.923Z,24.70
2018-08-19T20:01:25.759Z,24.60
2018-08-19T20:03:55.648Z,24.60
2018-08-19T20:06:24.952Z,24.50
2018-08-19T20:08:53.297Z,24.40
2018-08-19T20:11:27.238Z,24.30
2018-08-19T20:13:57.734Z,24.20
2018-08-19T20:16:26.722Z,24.30
2018-08-19T20:18:54.858Z,24.30
2018-08-19T20:21:25.698Z,24.20
2018-08-19T20:23:55.636Z,24.00
2018-08-19T20:26:24.712Z,23.90
2018-08-19T20:28:55.564Z,24.00
2018-08-19T20:31:24.365Z,23.90
2018-08-19T20:33:52.608Z,23.90
2018-08-19T20:36:20.990Z,23.90
2018-08-19T20:38:49.499Z,23.90
2018-08-19T20:41:17.674Z,23.70
2018-08-19T20:43:46.415Z,23.70
2018-08-19T20:46:14.881Z,23.70
2018-08-19T20:48:42.983Z,23.70
2018-08-19T20:51:11.941Z,23.70
2018-08-19T20:53:40.767Z,23.60
2018-08-19T20:56:09.251Z,23.40
2018-08-19T20:58:37.839Z,23.20
2018-08-19T21:01:13.483Z,23.30
2018-08-19T21:03:42.498Z,23.30
2018-08-19T21:06:10.992Z,23.30
2018-08-19T21:08:39.460Z,23.30
2018-08-19T21:11:07.915Z,23.10
2018-08-19T21:13:36.373Z,23.10
2018-08-19T21:16:04.552Z,23.10
2018-08-19T21:18:33.160Z,23.00
2018-08-19T21:21:01.925Z,23.00
2018-08-19T21:23:30.338Z,23.00
2018-08-19T21:26:01.869Z,23.00
2018-08-19T21:28:30.246Z,22.90
2018-08-19T21:30:58.450Z,22.90
2018-08-19T21:33:26.942Z,23.00
2018-08-19T21:35:56.570Z,23.00
2018-08-19T21:38:25.401Z,22.90
2018-08-19T21:40:55.976Z,22.90
2018-08-19T21:43:27.570Z,22.90
2018-08-19T21:45:56.076Z,22.90
2018-08-19T21:48:24.506Z,22.80
2018-08-19T21:50:53.463Z,22.70
2018-08-19T21:53:21.883Z,22.50
2018-08-19T21:55:51.979Z,22.40
2018-08-19T21:58:20.232Z,22.50
2018-08-19T22:00:54.156Z,22.50
2018-08-19T22:03:27.732Z,22.50
2018-08-19T22:05:56.160Z,22.40
2018-08-19T22:08:24.838Z,22.40
2018-08-19T22:10:53.090Z,22.40
2018-08-19T22:13:21.221Z,22.30
2018-08-19T22:15:49.473Z,22.10
2018-08-19T22:18:19.773Z,22.20
2018-08-19T22:21:02.071Z,22.30
2018-08-19T22:23:34.831Z,22.30
2018-08-19T22:26:03.031Z,22.20
2018-08-19T22:28:32.227Z,22.30
2018-08-19T22:31:10.640Z,22.30
2018-08-19T22:33:39.424Z,22.30
2018-08-19T22:36:08.564Z,22.10
2018-08-19T22:38:37.584Z,22.00
2018-08-19T22:41:05.777Z,22.00
2018-08-19T22:43:34.506Z,21.90
2018-08-19T22:46:02.984Z,21.70
2018-08-19T22:48:40.580Z,21.70
2018-08-19T22:51:09.139Z,21.70
2018-08-19T22:53:37.909Z,21.70
2018-08-19T22:56:06.395Z,21.60
2018-08-19T22:58:34.744Z,21.60
2018-08-19T23:01:03.436Z,21.50
2018-08-19T23:03:31.561Z,21.40
2018-08-19T23:05:59.739Z,21.40
2018-08-19T23:08:29.235Z,21.40
2018-08-19T23:10:59.359Z,21.40
2018-08-19T23:13:39.266Z,21.40
2018-08-19T23:16:09.475Z,21.30
2018-08-19T23:18:38.872Z,21.30
2018-08-19T23:21:07.290Z,21.10
2018-08-19T23:23:36.027Z,21.20
2018-08-19T23:26:04.473Z,21.20
2018-08-19T23:28:32.951Z,21.20
2018-08-19T23:31:01.480Z,21.20
2018-08-19T23:33:29.910Z,21.20
2018-08-19T23:35:58.669Z,21.20
2018-08-19T23:38:27.098Z,21.20
2018-08-19T23:40:55.869Z,21.20
2018-08-19T23:43:24.628Z,21.20
2018-08-19T23:45:53.412Z,21.30
2018-08-19T23:48:21.897Z,21.20
2018-08-19T23:50:50.741Z,21.20
2018-08-19T23:53:19.239Z,21.10
2018-08-19T23:55:47.390Z,21.10
2018-08-19T23:58:16.176Z,21.10
